createdAt,value
2019-02-08T00:01:37.782Z,8.00
2019-02-08T00:04:07.077Z,7.90
2019-02-08T00:06:36.494Z,7.90
2019-02-08T00:09:09.346Z,7.90
2019-02-08T00:11:39.001Z,7.90
2019-02-08T00:14:08.490Z,7.80
2019-02-08T00:16:37.932Z,7.80
2019-02-08T00:19:07.012Z,7.80
2019-02-08T00:21:36.242Z,7.80
2019-02-08T00:24:05.869Z,7.80
2019-02-08T00:26:35.154Z,7.80
2019-02-08T00:29:04.524Z,7.70
2019-02-08T00:31:33.775Z,7.70
2019-02-08T00:34:02.920Z,7.70
2019-02-08T00:36:32.344Z,7.60
2019-02-08T00:39:01.444Z,7.70
2019-02-08T00:41:31.299Z,7.60
2019-02-08T00:44:00.460Z,7.50
2019-02-08T00:46:29.860Z,7.50
2019-02-08T00:49:00.929Z,7.40
2019-02-08T00:51:30.381Z,7.40
2019-02-08T00:53:59.896Z,7.40
2019-02-08T00:56:29.092Z,7.40
2019-02-08T00:58:58.808Z,7.40
2019-02-08T01:01:28.532Z,7.20
2019-02-08T01:03:58.004Z,7.20
2019-02-08T01:06:27.576Z,7.10
2019-02-08T01:08:57.213Z,7.10
2019-02-08T01:11:26.380Z,7.10
2019-02-08T01:13:55.966Z,7.00
2019-02-08T01:16:25.623Z,7.10
2019-02-08T01:18:54.780Z,7.10
2019-02-08T01:21:24.576Z,7.20
2019-02-08T01:23:54.568Z,7.20
2019-02-08T01:26:23.852Z,7.20
2019-02-08T01:28:53.593Z,7.20
2019-02-08T01:31:22.693Z,7.20
2019-02-08T01:33:52.728Z,7.20
2019-02-08T01:36:22.324Z,7.30
2019-02-08T01:38:52.013Z,7.20
2019-02-08T01:41:22.376Z,7.20
2019-02-08T01:43:52.244Z,7.30
2019-02-08T01:46:22.321Z,7.30
2019-02-08T01:48:52.448Z,7.30
2019-02-08T01:51:21.809Z,7.40
2019-02-08T01:53:50.992Z,7.40
2019-02-08T01:56:20.417Z,7.40
2019-02-08T01:58:49.825Z,7.40
2019-02-08T02:01:19.179Z,7.40
2019-02-08T02:03:48.716Z,7.30
2019-02-08T02:06:18.152Z,7.40
2019-02-08T02:08:47.386Z,7.40
2019-02-08T02:11:16.532Z,7.50
2019-02-08T02:13:45.624Z,7.40
2019-02-08T02:16:14.839Z,7.40
2019-02-08T02:18:44.360Z,7.50
2019-02-08T02:21:13.618Z,7.50
2019-02-08T02:23:43.027Z,7.50
2019-02-08T02:26:12.336Z,7.50
2019-02-08T02:28:41.504Z,7.50
2019-02-08T02:31:10.574Z,7.50
2019-02-08T02:33:39.723Z,7.50
2019-02-08T02:36:09.031Z,7.50
2019-02-08T02:38:38.068Z,7.60
2019-02-08T02:41:08.300Z,7.50
2019-02-08T02:43:37.397Z,7.60
2019-02-08T02:46:07.729Z,7.60
2019-02-08T02:48:38.514Z,7.60
2019-02-08T02:51:07.993Z,7.60
2019-02-08T02:53:38.796Z,7.60
2019-02-08T02:56:07.878Z,7.60
2019-02-08T02:58:37.295Z,7.60
2019-02-08T03:01:06.505Z,7.60
2019-02-08T03:03:35.656Z,7.60
2019-02-08T03:06:05.336Z,7.60
2019-02-08T03:08:34.516Z,7.60
2019-02-08T03:11:03.713Z,7.60
2019-02-08T03:13:32.860Z,7.50
2019-02-08T03:16:02.269Z,7.60
2019-02-08T03:18:31.879Z,7.60
2019-02-08T03:21:01.044Z,7.60
2019-02-08T03:23:30.346Z,7.60
2019-02-08T03:25:59.669Z,7.50
2019-02-08T03:28:29.055Z,7.60
2019-02-08T03:30:59.049Z,7.60
2019-02-08T03:33:28.690Z,7.50
2019-02-08T03:35:58.100Z,7.50
2019-02-08T03:38:27.821Z,7.50
2019-02-08T03:40:57.951Z,7.50
2019-02-08T03:43:28.137Z,7.50
2019-02-08T03:45:57.764Z,7.60
2019-02-08T03:48:28.057Z,7.50
2019-02-08T03:50:58.111Z,7.50
2019-02-08T03:53:28.224Z,7.50
2019-02-08T03:55:59.044Z,7.50
2019-02-08T03:58:28.597Z,7.50
2019-02-08T04:01:01.446Z,7.50
2019-02-08T04:03:30.888Z,7.50
2019-02-08T04:06:00.452Z,7.50
2019-02-08T04:08:29.552Z,7.40
2019-02-08T04:10:59.176Z,7.40
2019-02-08T04:13:29.257Z,7.40
2019-02-08T04:15:59.060Z,7.40
2019-02-08T04:18:29.608Z,7.50
2019-02-08T04:20:59.792Z,7.40
2019-02-08T04:23:29.312Z,7.40
2019-02-08T04:25:59.906Z,7.40
2019-02-08T04:28:29.444Z,7.40
2019-02-08T04:30:59.745Z,7.40
2019-02-08T04:33:30.411Z,7.40
2019-02-08T04:36:00.384Z,7.40
2019-02-08T04:38:29.917Z,7.40
2019-02-08T04:40:59.866Z,7.40
2019-02-08T04:43:28.957Z,7.50
2019-02-08T04:45:58.172Z,7.50
2019-02-08T04:48:27.352Z,7.40
2019-02-08T04:50:56.540Z,7.40
2019-02-08T04:53:25.664Z,7.50
2019-02-08T04:55:54.772Z,7.40
2019-02-08T04:58:24.673Z,7.50
2019-02-08T05:00:53.809Z,7.40
2019-02-08T05:03:22.937Z,7.50
2019-02-08T05:05:52.247Z,7.50
2019-02-08T05:08:21.844Z,7.50
2019-02-08T05:10:51.792Z,7.50
2019-02-08T05:13:20.880Z,7.50
2019-02-08T05:15:50.024Z,7.50
2019-02-08T05:18:20.082Z,7.40
2019-02-08T05:20:49.233Z,7.50
2019-02-08T05:23:18.448Z,7.50
2019-02-08T05:25:47.804Z,7.50
2019-02-08T05:28:17.200Z,7.50
2019-02-08T05:30:46.436Z,7.50
2019-02-08T05:33:15.748Z,7.60
2019-02-08T05:35:45.043Z,7.60
2019-02-08T05:38:14.896Z,7.50
2019-02-08T05:40:44.064Z,7.50
2019-02-08T05:43:14.551Z,7.50
2019-02-08T05:45:43.750Z,7.50
2019-02-08T05:48:12.803Z,7.50
2019-02-08T05:50:42.336Z,7.50
2019-02-08T05:53:11.498Z,7.50
2019-02-08T05:55:40.615Z,7.50
2019-02-08T05:58:09.687Z,7.50
2019-02-08T06:00:52.899Z,7.50
2019-02-08T06:03:21.991Z,7.50
2019-02-08T06:05:51.660Z,7.50
2019-02-08T06:08:21.099Z,7.60
2019-02-08T06:10:51.244Z,7.60
2019-02-08T06:13:20.600Z,7.50
2019-02-08T06:15:50.853Z,7.50
2019-02-08T06:18:20.972Z,7.50
2019-02-08T06:20:50.284Z,7.60
2019-02-08T06:23:19.436Z,7.60
2019-02-08T06:25:48.517Z,7.60
2019-02-08T06:28:17.708Z,7.60
2019-02-08T06:30:47.020Z,7.60
2019-02-08T06:33:16.144Z,7.60
2019-02-08T06:35:45.312Z,7.70
2019-02-08T06:38:14.469Z,7.60
2019-02-08T06:40:45.032Z,7.70
2019-02-08T06:43:14.125Z,7.70
2019-02-08T06:45:43.591Z,7.70
2019-02-08T06:48:13.843Z,7.60
2019-02-08T06:50:43.132Z,7.60
2019-02-08T06:53:13.012Z,7.70
2019-02-08T06:55:42.135Z,7.70
2019-02-08T06:58:47.900Z,7.80
2019-02-08T07:01:35.272Z,7.80
2019-02-08T07:04:27.491Z,7.90
2019-02-08T07:07:15.716Z,7.90
2019-02-08T07:10:07.024Z,8.10
2019-02-08T07:13:01.093Z,8.10
2019-02-08T07:15:43.136Z,8.00
2019-02-08T07:18:34.781Z,8.00
2019-02-08T07:21:13.308Z,8.00
2019-02-08T07:24:04.364Z,8.00
2019-02-08T07:26:55.632Z,8.00
2019-02-08T07:29:40.357Z,8.00
2019-02-08T07:32:33.368Z,8.00
2019-02-08T07:35:13.910Z,8.00
2019-02-08T07:38:02.460Z,8.00
2019-02-08T07:40:42.341Z,8.00
2019-02-08T07:43:28.755Z,8.00
2019-02-08T07:46:26.672Z,8.00
2019-02-08T07:49:04.555Z,8.00
2019-02-08T07:51:45.996Z,8.00
2019-02-08T07:54:37.256Z,8.10
2019-02-08T07:57:24.180Z,8.10
2019-02-08T08:00:19.800Z,8.10
2019-02-08T08:03:07.124Z,8.10
2019-02-08T08:06:00.342Z,8.10
2019-02-08T08:08:47.304Z,8.10
2019-02-08T08:11:29.437Z,8.20
2019-02-08T08:14:23.142Z,8.20
2019-02-08T08:17:10.293Z,8.20
2019-02-08T08:20:03.668Z,8.20
2019-02-08T08:22:57.757Z,8.20
2019-02-08T08:25:47.844Z,8.20
2019-02-08T08:28:46.975Z,8.20
2019-02-08T08:31:22.472Z,8.20
2019-02-08T08:34:03.994Z,8.20
2019-02-08T08:37:10.276Z,8.30
2019-02-08T08:40:27.852Z,8.30
2019-02-08T08:43:37.956Z,8.30
2019-02-08T08:46:27.285Z,8.30
2019-02-08T08:49:39.428Z,8.30
2019-02-08T08:52:25.021Z,8.40
2019-02-08T08:55:32.297Z,8.40
2019-02-08T08:58:56.496Z,8.50
2019-02-08T09:02:09.384Z,8.40
2019-02-08T09:05:02.347Z,8.50
2019-02-08T09:08:25.148Z,8.60
2019-02-08T09:11:37.125Z,8.60
2019-02-08T09:14:46.524Z,8.60
2019-02-08T09:18:18.343Z,8.60
2019-02-08T09:21:34.567Z,8.60
2019-02-08T09:24:33.400Z,8.60
2019-02-08T09:27:36.299Z,8.80
2019-02-08T09:31:04.604Z,8.70
2019-02-08T09:33:56.999Z,8.80
2019-02-08T09:37:04.575Z,8.80
2019-02-08T09:40:02.027Z,8.90
2019-02-08T09:43:07.276Z,8.90
2019-02-08T09:46:00.690Z,8.90
2019-02-08T09:48:59.690Z,8.90
2019-02-08T09:52:11.710Z,8.90
2019-02-08T09:55:13.453Z,9.00
2019-02-08T09:58:19.236Z,9.00
2019-02-08T10:01:25.522Z,9.00
2019-02-08T10:04:16.940Z,9.10
2019-02-08T10:07:14.378Z,9.10
2019-02-08T10:10:29.768Z,9.10
2019-02-08T10:13:38.598Z,9.10
2019-02-08T10:16:35.901Z,9.10
2019-02-08T10:19:33.271Z,9.10
2019-02-08T10:22:46.600Z,9.10
2019-02-08T10:25:51.252Z,9.10
2019-02-08T10:29:09.394Z,9.20
2019-02-08T10:32:16.998Z,9.20
2019-02-08T10:35:35.183Z,9.20
2019-02-08T10:38:47.259Z,9.20
2019-02-08T10:42:07.044Z,9.20
2019-02-08T10:45:14.967Z,9.20
2019-02-08T10:48:21.260Z,9.30
2019-02-08T10:51:19.980Z,9.30
2019-02-08T10:54:39.064Z,9.30
2019-02-08T10:57:44.429Z,9.30
2019-02-08T11:00:52.829Z,9.30
2019-02-08T11:03:59.436Z,9.40
2019-02-08T11:06:57.492Z,9.50
2019-02-08T11:10:07.803Z,9.50
2019-02-08T11:13:13.894Z,9.50
2019-02-08T11:16:33.888Z,9.60
2019-02-08T11:19:15.943Z,9.60
2019-02-08T11:21:46.030Z,9.70
2019-02-08T11:24:16.448Z,9.80
2019-02-08T11:26:46.251Z,9.80
2019-02-08T11:29:15.431Z,9.90
2019-02-08T11:31:44.547Z,9.90
2019-02-08T11:34:14.173Z,9.90
2019-02-08T11:36:43.444Z,9.80
2019-02-08T11:39:18.036Z,9.80
2019-02-08T11:41:48.164Z,9.90
2019-02-08T11:44:18.743Z,9.90
2019-02-08T11:46:49.152Z,9.90
2019-02-08T11:49:18.553Z,9.90
2019-02-08T11:51:47.733Z,10.00
2019-02-08T11:54:17.608Z,10.00
2019-02-08T11:56:47.872Z,10.00
2019-02-08T11:59:16.948Z,10.00
2019-02-08T12:01:48.120Z,10.10
2019-02-08T12:04:18.148Z,10.10
2019-02-08T12:06:47.331Z,10.10
2019-02-08T12:09:18.292Z,10.00
2019-02-08T12:11:47.607Z,10.00
2019-02-08T12:14:16.729Z,10.00
2019-02-08T12:16:45.872Z,10.10
2019-02-08T12:19:14.968Z,10.00
2019-02-08T12:21:44.044Z,10.00
2019-02-08T12:24:13.132Z,10.00
2019-02-08T12:26:42.420Z,10.00
2019-02-08T12:29:12.278Z,9.90
2019-02-08T12:31:41.636Z,9.90
2019-02-08T12:34:10.903Z,9.90
2019-02-08T12:36:40.063Z,10.00
2019-02-08T12:39:11.163Z,10.00
2019-02-08T12:41:41.164Z,10.00
2019-02-08T12:44:14.143Z,10.00
2019-02-08T12:46:43.360Z,10.00
2019-02-08T12:49:12.870Z,10.10
2019-02-08T12:51:41.959Z,10.10
2019-02-08T12:54:11.783Z,10.20
2019-02-08T12:56:45.711Z,10.20
2019-02-08T12:59:13.016Z,10.30
2019-02-08T13:01:42.488Z,10.30
2019-02-08T13:04:14.808Z,10.20
2019-02-08T13:06:43.963Z,10.40
2019-02-08T13:09:13.502Z,10.30
2019-02-08T13:11:43.200Z,10.30
2019-02-08T13:14:12.920Z,10.30
2019-02-08T13:16:42.336Z,10.20
2019-02-08T13:19:11.792Z,10.20
2019-02-08T13:21:41.303Z,10.20
2019-02-08T13:24:10.821Z,10.20
2019-02-08T13:26:39.908Z,10.20
2019-02-08T13:29:08.968Z,10.20
2019-02-08T13:31:38.097Z,10.10
2019-02-08T13:34:07.360Z,10.10
2019-02-08T13:36:36.469Z,10.00
2019-02-08T13:39:08.627Z,10.00
2019-02-08T13:41:38.235Z,10.00
2019-02-08T13:44:07.692Z,9.90
2019-02-08T13:46:38.042Z,9.80
2019-02-08T13:49:08.748Z,9.80
2019-02-08T13:51:38.007Z,9.80
2019-02-08T13:54:07.204Z,9.70
2019-02-08T13:56:36.656Z,9.70
2019-02-08T13:59:06.023Z,9.80
2019-02-08T14:01:35.127Z,9.70
2019-02-08T14:04:04.862Z,9.70
2019-02-08T14:06:33.957Z,9.70
2019-02-08T14:09:04.398Z,9.70
2019-02-08T14:11:33.455Z,9.70
2019-02-08T14:14:02.753Z,9.70
2019-02-08T14:16:31.888Z,9.70
2019-02-08T14:19:01.780Z,9.70
2019-02-08T14:21:30.888Z,9.70
2019-02-08T14:24:00.951Z,9.70
2019-02-08T14:26:30.558Z,9.60
2019-02-08T14:29:00.556Z,9.70
2019-02-08T14:31:31.072Z,9.70
2019-02-08T14:34:01.372Z,9.70
2019-02-08T14:36:31.061Z,9.60
2019-02-08T14:39:01.199Z,9.60
2019-02-08T14:41:33.344Z,9.60
2019-02-08T14:44:03.753Z,9.60
2019-02-08T14:46:33.664Z,9.60
2019-02-08T14:49:02.808Z,9.60
2019-02-08T14:51:32.091Z,9.60
2019-02-08T14:54:01.897Z,9.60
2019-02-08T14:56:31.965Z,9.60
2019-02-08T14:59:02.677Z,9.60
2019-02-08T15:01:32.285Z,9.60
2019-02-08T15:04:02.415Z,9.60
2019-02-08T15:06:32.324Z,9.60
2019-02-08T15:09:02.402Z,9.70
2019-02-08T15:11:32.192Z,9.70
2019-02-08T15:14:02.355Z,9.70
2019-02-08T15:16:32.880Z,9.70
2019-02-08T15:19:03.068Z,9.70
2019-02-08T15:21:32.971Z,9.70
2019-02-08T15:24:03.008Z,9.70
2019-02-08T15:26:32.925Z,9.70
2019-02-08T15:29:02.946Z,9.70
2019-02-08T15:31:33.188Z,9.70
2019-02-08T15:34:03.240Z,9.80
2019-02-08T15:36:33.289Z,9.80
2019-02-08T15:39:02.444Z,9.70
2019-02-08T15:41:31.656Z,9.70
2019-02-08T15:44:00.816Z,9.70
2019-02-08T15:46:29.900Z,9.90
2019-02-08T15:49:00.049Z,9.80
2019-02-08T15:51:29.901Z,9.80
2019-02-08T15:53:59.052Z,9.80
2019-02-08T15:56:28.488Z,9.80
2019-02-08T15:58:57.617Z,9.70
2019-02-08T16:01:26.960Z,9.70
2019-02-08T16:03:56.100Z,9.70
2019-02-08T16:06:26.449Z,9.70
2019-02-08T16:08:55.920Z,9.70
2019-02-08T16:11:25.259Z,9.70
2019-02-08T16:13:57.973Z,9.70
2019-02-08T16:16:27.045Z,9.80
2019-02-08T16:18:56.204Z,9.80
2019-02-08T16:21:25.797Z,9.80
2019-02-08T16:23:54.943Z,9.70
2019-02-08T16:26:24.011Z,9.70
2019-02-08T16:28:56.662Z,9.70
2019-02-08T16:31:25.876Z,9.70
2019-02-08T16:33:55.076Z,9.70
2019-02-08T16:36:24.210Z,9.70
2019-02-08T16:38:53.288Z,9.70
2019-02-08T16:41:22.399Z,9.70
2019-02-08T16:43:51.892Z,9.70
2019-02-08T16:46:21.043Z,9.70
2019-02-08T16:48:50.164Z,9.60
2019-02-08T16:51:19.410Z,9.70
2019-02-08T16:53:53.344Z,9.60
2019-02-08T16:56:19.443Z,9.70
2019-02-08T16:58:48.536Z,9.70
2019-02-08T17:01:17.592Z,9.70
2019-02-08T17:03:46.781Z,9.60
2019-02-08T17:06:16.192Z,9.70
2019-02-08T17:08:45.340Z,9.70
2019-02-08T17:11:14.717Z,9.70
2019-02-08T17:13:43.768Z,9.70
2019-02-08T17:16:15.797Z,9.70
2019-02-08T17:18:44.823Z,9.70
2019-02-08T17:21:14.415Z,9.60
2019-02-08T17:23:43.552Z,9.60
2019-02-08T17:26:12.985Z,9.60
2019-02-08T17:28:42.095Z,9.60
2019-02-08T17:31:11.219Z,9.70
2019-02-08T17:33:40.609Z,9.60
2019-02-08T17:36:09.904Z,9.60
2019-02-08T17:38:39.095Z,9.70
2019-02-08T17:41:09.618Z,9.60
2019-02-08T17:43:38.982Z,9.70
2019-02-08T17:46:08.200Z,9.90
2019-02-08T17:48:37.343Z,9.90
2019-02-08T17:51:06.484Z,9.80
2019-02-08T17:53:35.912Z,9.70
2019-02-08T17:56:05.208Z,9.70
2019-02-08T17:58:35.180Z,9.70
2019-02-08T18:01:04.973Z,9.70
2019-02-08T18:03:34.931Z,9.70
2019-02-08T18:06:04.351Z,9.70
2019-02-08T18:08:34.556Z,9.70
2019-02-08T18:11:04.056Z,9.70
2019-02-08T18:13:33.245Z,9.70
2019-02-08T18:16:02.414Z,9.70
2019-02-08T18:18:32.151Z,9.70
2019-02-08T18:21:03.884Z,9.80
2019-02-08T18:23:34.360Z,9.80
2019-02-08T18:26:04.107Z,9.80
2019-02-08T18:28:33.304Z,9.80
2019-02-08T18:31:02.710Z,9.80
2019-02-08T18:33:32.160Z,9.80
2019-02-08T18:36:01.202Z,9.80
2019-02-08T18:38:30.400Z,9.80
2019-02-08T18:40:59.853Z,9.80
2019-02-08T18:43:28.936Z,9.90
2019-02-08T18:45:58.548Z,9.90
2019-02-08T18:48:27.719Z,9.90
2019-02-08T18:50:56.885Z,9.90
2019-02-08T18:53:25.942Z,9.90
2019-02-08T18:55:55.103Z,10.00
2019-02-08T18:58:24.247Z,10.00
2019-02-08T19:00:53.950Z,9.90
2019-02-08T19:03:23.577Z,9.90
2019-02-08T19:05:54.481Z,9.90
2019-02-08T19:08:23.549Z,9.90
2019-02-08T19:10:52.702Z,9.90
2019-02-08T19:13:21.892Z,9.90
2019-02-08T19:15:50.971Z,9.90
2019-02-08T19:18:20.096Z,9.90
2019-02-08T19:20:49.136Z,10.00
2019-02-08T19:23:18.605Z,10.00
2019-02-08T19:25:49.136Z,9.90
2019-02-08T19:28:26.145Z,10.00
2019-02-08T19:30:50.588Z,9.90
2019-02-08T19:33:19.769Z,10.00
2019-02-08T19:35:48.973Z,9.90
2019-02-08T19:38:18.265Z,9.90
2019-02-08T19:40:47.337Z,9.90
2019-02-08T19:43:17.734Z,9.90
2019-02-08T19:45:47.375Z,9.90
2019-02-08T19:48:16.916Z,9.90
2019-02-08T19:50:46.832Z,9.90
2019-02-08T19:53:16.180Z,9.90
2019-02-08T19:55:45.738Z,9.90
2019-02-08T19:58:15.022Z,9.90
2019-02-08T20:00:45.262Z,9.90
2019-02-08T20:03:14.508Z,9.90
2019-02-08T20:05:43.684Z,9.90
2019-02-08T20:08:13.896Z,9.90
2019-02-08T20:10:44.869Z,9.90
2019-02-08T20:13:14.144Z,9.90
2019-02-08T20:15:43.358Z,9.80
2019-02-08T20:18:13.493Z,9.80
2019-02-08T20:20:42.900Z,9.70
2019-02-08T20:23:12.012Z,9.80
2019-02-08T20:25:41.128Z,9.80
2019-02-08T20:28:10.484Z,9.80
2019-02-08T20:30:39.833Z,9.80
2019-02-08T20:33:09.064Z,9.80
2019-02-08T20:35:38.228Z,9.80
2019-02-08T20:38:10.020Z,9.80
2019-02-08T20:40:45.211Z,9.80
2019-02-08T20:43:14.582Z,9.80
2019-02-08T20:45:43.779Z,9.80
2019-02-08T20:48:23.672Z,9.80
2019-02-08T20:50:53.055Z,9.70
2019-02-08T20:53:22.712Z,9.70
2019-02-08T20:55:53.751Z,9.70
2019-02-08T20:58:23.044Z,9.70
2019-02-08T21:00:53.404Z,9.70
2019-02-08T21:03:25.063Z,9.70
2019-02-08T21:05:54.878Z,9.70
2019-02-08T21:08:24.201Z,9.70
2019-02-08T21:10:53.249Z,9.70
2019-02-08T21:13:22.567Z,9.70
2019-02-08T21:15:52.090Z,9.70
2019-02-08T21:18:21.474Z,9.70
2019-02-08T21:20:50.679Z,9.70
2019-02-08T21:23:19.860Z,9.70
2019-02-08T21:25:51.694Z,9.70
2019-02-08T21:28:20.629Z,9.70
2019-02-08T21:30:49.731Z,9.60
2019-02-08T21:33:19.627Z,9.70
2019-02-08T21:35:49.688Z,9.60
2019-02-08T21:38:18.959Z,9.60
2019-02-08T21:40:48.380Z,9.70
2019-02-08T21:43:17.471Z,9.70
2019-02-08T21:45:46.877Z,9.70
2019-02-08T21:48:16.065Z,9.70
2019-02-08T21:50:45.286Z,9.70
2019-02-08T21:53:14.531Z,9.70
2019-02-08T21:55:44.016Z,9.70
2019-02-08T21:58:13.216Z,9.70
2019-02-08T22:00:43.172Z,9.70
2019-02-08T22:03:13.766Z,9.70
2019-02-08T22:06:01.336Z,9.70
2019-02-08T22:08:31.265Z,9.70
2019-02-08T22:11:00.744Z,9.70
2019-02-08T22:13:30.121Z,9.70
2019-02-08T22:15:59.420Z,9.70
2019-02-08T22:18:28.632Z,9.70
2019-02-08T22:20:57.842Z,9.70
2019-02-08T22:23:27.115Z,9.80
2019-02-08T22:25:57.933Z,9.80
2019-02-08T22:28:27.142Z,9.80
2019-02-08T22:30:56.524Z,9.80
2019-02-08T22:33:27.996Z,9.80
2019-02-08T22:35:57.476Z,9.90
2019-02-08T22:38:26.761Z,9.90
2019-02-08T22:40:56.572Z,9.90
2019-02-08T22:43:25.691Z,9.90
2019-02-08T22:45:55.376Z,9.90
2019-02-08T22:48:24.660Z,9.90
2019-02-08T22:50:54.012Z,9.90
2019-02-08T22:53:23.192Z,9.90
2019-02-08T22:55:53.173Z,9.80
2019-02-08T22:58:22.364Z,9.60
2019-02-08T23:01:28.675Z,9.50
2019-02-08T23:04:01.814Z,9.40
2019-02-08T23:06:31.447Z,9.40
2019-02-08T23:09:00.814Z,9.30
2019-02-08T23:11:30.148Z,9.30
2019-02-08T23:13:59.635Z,9.30
2019-02-08T23:16:29.047Z,9.30
2019-02-08T23:18:58.191Z,9.30
2019-02-08T23:21:27.431Z,9.30
2019-02-08T23:23:56.468Z,9.30
2019-02-08T23:26:25.616Z,9.30
2019-02-08T23:28:54.792Z,9.30
2019-02-08T23:31:24.043Z,9.30
2019-02-08T23:33:53.633Z,9.30
2019-02-08T23:36:22.808Z,9.30
2019-02-08T23:38:52.324Z,9.30
2019-02-08T23:41:23.456Z,9.30
2019-02-08T23:43:52.492Z,9.30
2019-02-08T23:46:21.613Z,9.30
2019-02-08T23:48:50.700Z,9.30
2019-02-08T23:51:19.816Z,9.30
2019-02-08T23:53:49.841Z,9.20
2019-02-08T23:56:19.229Z,9.20
2019-02-08T23:58:48.391Z,9.20
